createdAt,value
2017-09-16T00:01:05.614Z,60.10
2017-09-16T00:03:33.367Z,60.40
2017-09-16T00:06:01.115Z,61.00
2017-09-16T00:08:28.755Z,60.30
2017-09-16T00:10:56.389Z,60.50
2017-09-16T00:13:24.802Z,60.40
2017-09-16T00:15:52.493Z,60.30
2017-09-16T00:18:20.149Z,60.20
2017-09-16T00:20:47.777Z,60.20
2017-09-16T00:23:15.493Z,60.30
2017-09-16T00:25:43.108Z,60.30
2017-09-16T00:28:10.727Z,60.20
2017-09-16T00:30:38.387Z,60.20
2017-09-16T00:33:06.018Z,60.20
2017-09-16T00:35:33.685Z,60.30
2017-09-16T00:38:01.437Z,60.20
2017-09-16T00:40:29.108Z,60.30
2017-09-16T00:42:56.720Z,60.00
2017-09-16T00:45:24.337Z,60.30
2017-09-16T00:47:52.777Z,60.40
2017-09-16T00:50:20.462Z,60.30
2017-09-16T00:52:48.084Z,60.40
2017-09-16T00:55:15.891Z,60.50
2017-09-16T00:57:43.520Z,60.50
2017-09-16T01:00:11.176Z,60.90
2017-09-16T01:02:38.862Z,61.00
2017-09-16T01:05:06.475Z,61.00
2017-09-16T01:07:34.906Z,61.10
2017-09-16T01:10:02.598Z,61.00
2017-09-16T01:12:30.358Z,61.00
2017-09-16T01:14:58.028Z,61.00
2017-09-16T01:17:27.202Z,61.00
2017-09-16T01:19:54.882Z,61.00
2017-09-16T01:22:22.730Z,60.80
2017-09-16T01:24:50.417Z,60.70
2017-09-16T01:27:18.184Z,60.80
2017-09-16T01:29:45.820Z,60.80
2017-09-16T01:32:13.457Z,61.10
2017-09-16T01:34:41.115Z,61.10
2017-09-16T01:37:08.732Z,61.10
2017-09-16T01:39:36.396Z,61.10
2017-09-16T01:42:04.021Z,61.10
2017-09-16T01:44:31.671Z,61.20
2017-09-16T01:46:59.336Z,61.30
2017-09-16T01:49:26.961Z,61.00
2017-09-16T01:51:55.389Z,61.10
2017-09-16T01:54:23.008Z,60.90
2017-09-16T01:56:51.400Z,61.10
2017-09-16T01:59:19.048Z,61.00
2017-09-16T02:01:47.440Z,61.10
2017-09-16T02:04:15.185Z,61.00
2017-09-16T02:06:43.591Z,61.10
2017-09-16T02:09:11.221Z,61.10
2017-09-16T02:11:39.637Z,61.10
2017-09-16T02:14:07.336Z,61.00
2017-09-16T02:16:35.005Z,60.90
2017-09-16T02:19:02.646Z,61.00
2017-09-16T02:21:30.326Z,61.20
2017-09-16T02:23:57.993Z,61.00
2017-09-16T02:26:25.638Z,61.00
2017-09-16T02:28:53.303Z,61.30
2017-09-16T02:31:20.976Z,61.10
2017-09-16T02:33:49.371Z,61.40
2017-09-16T02:36:17.795Z,61.30
2017-09-16T02:38:45.484Z,61.30
2017-09-16T02:41:13.642Z,61.50
2017-09-16T02:43:41.279Z,61.30
2017-09-16T02:46:08.939Z,61.70
2017-09-16T02:48:36.674Z,61.60
2017-09-16T02:51:05.077Z,61.40
2017-09-16T02:53:32.720Z,61.30
2017-09-16T02:56:01.117Z,61.50
2017-09-16T02:58:28.831Z,61.40
2017-09-16T03:00:56.474Z,61.50
2017-09-16T03:03:24.149Z,61.50
2017-09-16T03:05:51.796Z,61.50
2017-09-16T03:08:19.583Z,61.50
2017-09-16T03:10:47.229Z,61.40
2017-09-16T03:13:14.988Z,61.50
2017-09-16T03:15:42.623Z,61.50
2017-09-16T03:18:10.244Z,61.30
2017-09-16T03:20:37.903Z,61.40
2017-09-16T03:23:05.529Z,61.40
2017-09-16T03:25:33.176Z,61.80
2017-09-16T03:28:00.795Z,61.40
2017-09-16T03:30:29.336Z,61.90
2017-09-16T03:32:56.974Z,61.70
2017-09-16T03:35:24.617Z,61.60
2017-09-16T03:37:52.269Z,61.30
2017-09-16T03:40:20.674Z,61.90
2017-09-16T03:42:48.338Z,61.80
2017-09-16T03:45:15.984Z,61.70
2017-09-16T03:47:43.600Z,61.80
2017-09-16T03:50:11.371Z,61.60
2017-09-16T03:52:39.028Z,61.50
2017-09-16T03:55:06.695Z,62.00
2017-09-16T03:57:34.360Z,61.80
2017-09-16T04:00:02.012Z,61.80
2017-09-16T04:02:41.591Z,61.60
2017-09-16T04:05:10.045Z,61.90
2017-09-16T04:07:37.708Z,61.80
2017-09-16T04:10:05.470Z,61.90
2017-09-16T04:12:33.210Z,61.70
2017-09-16T04:15:00.847Z,61.60
2017-09-16T04:17:28.513Z,61.60
2017-09-16T04:19:56.214Z,61.80
2017-09-16T04:22:23.978Z,61.70
2017-09-16T04:24:51.722Z,61.90
2017-09-16T04:27:19.486Z,61.90
2017-09-16T04:29:47.129Z,61.80
2017-09-16T04:32:14.775Z,61.60
2017-09-16T04:34:42.418Z,61.70
2017-09-16T04:37:10.834Z,61.90
2017-09-16T04:39:38.478Z,61.90
2017-09-16T04:42:06.151Z,62.80
2017-09-16T04:44:33.786Z,62.00
2017-09-16T04:47:02.180Z,62.80
2017-09-16T04:49:29.847Z,61.80
2017-09-16T04:51:57.474Z,62.00
2017-09-16T04:54:25.918Z,62.20
2017-09-16T04:56:53.555Z,62.00
2017-09-16T04:59:21.211Z,62.20
2017-09-16T05:01:48.846Z,62.00
2017-09-16T05:04:17.249Z,61.70
2017-09-16T05:06:44.935Z,61.70
2017-09-16T05:09:12.560Z,62.20
2017-09-16T05:11:40.221Z,62.20
2017-09-16T05:14:08.647Z,62.30
2017-09-16T05:16:36.283Z,62.10
2017-09-16T05:19:03.926Z,62.50
2017-09-16T05:21:32.366Z,62.30
2017-09-16T05:24:00.008Z,62.20
2017-09-16T05:26:27.644Z,62.20
2017-09-16T05:28:55.305Z,62.20
2017-09-16T05:31:22.949Z,62.10
2017-09-16T05:33:51.375Z,62.10
2017-09-16T05:36:19.014Z,62.10
2017-09-16T05:38:46.633Z,62.10
2017-09-16T05:41:14.288Z,62.30
2017-09-16T05:43:41.915Z,62.20
2017-09-16T05:46:09.532Z,62.00
2017-09-16T05:48:37.974Z,62.20
2017-09-16T05:51:05.602Z,62.20
2017-09-16T05:53:33.236Z,62.20
2017-09-16T05:56:01.666Z,62.70
2017-09-16T05:58:29.303Z,62.70
2017-09-16T06:00:56.920Z,62.80
2017-09-16T06:03:24.579Z,62.90
2017-09-16T06:05:52.194Z,64.10
2017-09-16T06:08:19.862Z,63.20
2017-09-16T06:10:47.507Z,64.30
2017-09-16T06:13:15.133Z,63.40
2017-09-16T06:15:44.123Z,63.70
2017-09-16T06:18:11.766Z,63.70
2017-09-16T06:20:39.416Z,63.20
2017-09-16T06:23:07.822Z,63.80
2017-09-16T06:25:35.479Z,63.70
2017-09-16T06:28:03.210Z,63.80
2017-09-16T06:30:30.844Z,63.80
2017-09-16T06:32:58.496Z,64.00
2017-09-16T06:35:26.135Z,63.80
2017-09-16T06:37:54.622Z,63.80
2017-09-16T06:40:23.200Z,64.00
2017-09-16T06:42:51.637Z,64.20
2017-09-16T06:45:19.328Z,64.00
2017-09-16T06:47:46.970Z,64.20
2017-09-16T06:50:15.154Z,64.60
2017-09-16T06:52:43.024Z,64.40
2017-09-16T06:55:10.686Z,64.40
2017-09-16T06:57:38.333Z,64.00
2017-09-16T07:00:05.995Z,64.30
2017-09-16T07:02:33.612Z,64.60
2017-09-16T07:05:01.293Z,64.60
2017-09-16T07:07:28.991Z,65.00
2017-09-16T07:09:57.016Z,65.00
2017-09-16T07:12:24.655Z,65.40
2017-09-16T07:14:53.084Z,65.70
2017-09-16T07:17:20.719Z,65.50
2017-09-16T07:19:48.395Z,65.40
2017-09-16T07:22:16.017Z,65.70
2017-09-16T07:24:44.443Z,66.10
2017-09-16T07:27:12.108Z,66.00
2017-09-16T07:29:39.775Z,66.20
2017-09-16T07:32:07.411Z,66.30
2017-09-16T07:34:35.915Z,66.10
2017-09-16T07:37:03.569Z,65.80
2017-09-16T07:39:31.211Z,66.10
2017-09-16T07:41:58.838Z,66.10
2017-09-16T07:44:26.535Z,66.20
2017-09-16T07:46:54.184Z,66.50
2017-09-16T07:49:21.800Z,66.20
2017-09-16T07:51:50.226Z,66.40
2017-09-16T07:54:17.922Z,66.20
2017-09-16T07:56:45.566Z,66.30
2017-09-16T07:59:13.188Z,66.50
2017-09-16T08:01:41.016Z,66.50
2017-09-16T08:04:08.649Z,66.60
2017-09-16T08:06:36.286Z,66.40
2017-09-16T08:09:04.708Z,66.30
2017-09-16T08:11:32.592Z,66.30
2017-09-16T08:14:00.221Z,66.40
2017-09-16T08:16:27.911Z,66.40
2017-09-16T08:18:55.543Z,66.40
2017-09-16T08:21:23.179Z,66.00
2017-09-16T08:23:51.597Z,66.40
2017-09-16T08:26:19.230Z,66.30
2017-09-16T08:28:46.929Z,66.30
2017-09-16T08:31:14.551Z,66.30
2017-09-16T08:33:42.973Z,66.20
2017-09-16T08:36:10.654Z,66.20
2017-09-16T08:38:38.279Z,66.40
2017-09-16T08:41:06.014Z,66.30
2017-09-16T08:43:34.446Z,66.30
2017-09-16T08:46:02.118Z,66.10
2017-09-16T08:48:29.807Z,66.30
2017-09-16T08:50:58.199Z,66.40
2017-09-16T08:53:26.638Z,66.50
2017-09-16T08:55:54.301Z,66.50
2017-09-16T08:58:21.953Z,66.40
2017-09-16T09:00:49.779Z,66.40
2017-09-16T09:03:17.651Z,66.30
2017-09-16T09:05:45.422Z,66.20
2017-09-16T09:08:13.221Z,66.10
2017-09-16T09:10:41.199Z,65.80
2017-09-16T09:13:09.066Z,65.60
2017-09-16T09:15:36.924Z,65.60
2017-09-16T09:18:04.798Z,65.40
2017-09-16T09:20:32.659Z,65.40
2017-09-16T09:23:00.531Z,65.60
2017-09-16T09:25:28.394Z,65.40
2017-09-16T09:27:56.267Z,65.00
2017-09-16T09:30:24.130Z,65.10
2017-09-16T09:32:51.996Z,64.80
2017-09-16T09:35:19.861Z,64.90
2017-09-16T09:37:47.589Z,64.90
2017-09-16T09:40:15.495Z,64.60
2017-09-16T09:42:43.252Z,64.10
2017-09-16T09:45:11.124Z,63.70
2017-09-16T09:47:38.996Z,63.70
2017-09-16T09:52:57.349Z,63.20
2017-09-16T09:55:24.984Z,63.70
2017-09-16T09:57:52.763Z,63.70
2017-09-16T10:00:20.533Z,63.40
2017-09-16T10:02:48.294Z,63.20
2017-09-16T10:05:15.920Z,62.90
2017-09-16T10:07:43.638Z,62.80
2017-09-16T10:10:11.301Z,62.50
2017-09-16T10:12:39.761Z,63.00
2017-09-16T10:15:07.423Z,62.70
2017-09-16T10:17:35.040Z,62.50
2017-09-16T10:20:02.682Z,62.70
2017-09-16T10:22:31.151Z,62.60
2017-09-16T10:24:58.765Z,62.50
2017-09-16T10:27:26.411Z,62.30
2017-09-16T10:29:54.079Z,62.30
2017-09-16T10:32:21.769Z,62.30
2017-09-16T10:34:49.453Z,61.50
2017-09-16T10:37:17.312Z,61.40
2017-09-16T10:39:46.468Z,61.90
2017-09-16T10:42:14.147Z,61.70
2017-09-16T10:44:41.922Z,61.00
2017-09-16T10:47:09.594Z,61.00
2017-09-16T10:49:37.223Z,60.50
2017-09-16T10:52:06.956Z,60.60
2017-09-16T10:54:35.412Z,60.50
2017-09-16T10:57:03.099Z,60.30
2017-09-16T10:59:30.722Z,60.00
2017-09-16T11:01:58.395Z,59.80
2017-09-16T11:04:26.019Z,59.80
2017-09-16T11:06:53.746Z,59.70
2017-09-16T11:09:21.416Z,59.60
2017-09-16T11:11:49.050Z,59.20
2017-09-16T11:14:16.695Z,59.20
2017-09-16T11:16:44.353Z,59.00
2017-09-16T11:19:11.985Z,58.60
2017-09-16T11:21:41.111Z,59.10
2017-09-16T11:24:08.764Z,59.10
2017-09-16T11:26:37.141Z,59.60
2017-09-16T11:29:05.544Z,59.40
2017-09-16T11:31:33.335Z,59.40
2017-09-16T11:34:01.014Z,59.50
2017-09-16T11:36:28.632Z,59.20
2017-09-16T11:38:56.286Z,59.10
2017-09-16T11:41:24.090Z,59.20
2017-09-16T11:43:51.763Z,59.10
2017-09-16T11:46:19.509Z,59.00
2017-09-16T11:48:47.137Z,58.90
2017-09-16T11:51:14.802Z,58.70
2017-09-16T11:53:42.434Z,58.40
2017-09-16T11:56:10.835Z,58.40
2017-09-16T11:58:38.498Z,58.30
2017-09-16T12:01:06.117Z,58.60
2017-09-16T12:03:33.734Z,58.50
2017-09-16T12:06:01.391Z,57.90
2017-09-16T12:08:29.014Z,58.20
2017-09-16T12:10:56.651Z,58.10
2017-09-16T12:13:24.304Z,57.80
2017-09-16T12:15:52.070Z,57.70
2017-09-16T12:18:19.719Z,57.60
2017-09-16T12:20:47.373Z,57.70
2017-09-16T12:23:15.075Z,57.50
2017-09-16T12:25:42.704Z,57.30
2017-09-16T12:28:10.398Z,56.60
2017-09-16T12:30:38.023Z,56.90
2017-09-16T12:33:05.722Z,57.30
2017-09-16T12:35:33.378Z,57.30
2017-09-16T12:38:01.034Z,57.60
2017-09-16T12:40:28.690Z,57.00
2017-09-16T12:42:56.368Z,56.80
2017-09-16T12:45:24.112Z,57.20
2017-09-16T12:47:51.726Z,57.10
2017-09-16T12:50:20.147Z,56.80
2017-09-16T12:52:47.779Z,56.60
2017-09-16T12:55:15.494Z,56.70
2017-09-16T12:57:44.794Z,56.50
2017-09-16T13:00:12.413Z,56.50
2017-09-16T13:02:40.117Z,56.60
2017-09-16T13:05:07.732Z,56.60
2017-09-16T13:07:35.390Z,56.20
2017-09-16T13:10:03.024Z,56.20
2017-09-16T13:12:31.463Z,55.80
2017-09-16T13:14:59.078Z,55.80
2017-09-16T13:17:27.522Z,55.20
2017-09-16T13:19:55.285Z,55.20
2017-09-16T13:22:22.923Z,55.50
2017-09-16T13:24:50.590Z,55.60
2017-09-16T13:27:18.232Z,55.40
2017-09-16T13:29:45.864Z,55.60
2017-09-16T13:32:14.313Z,55.80
2017-09-16T13:34:41.975Z,55.80
2017-09-16T13:37:09.613Z,55.60
2017-09-16T13:39:37.288Z,55.70
2017-09-16T13:42:04.940Z,55.40
2017-09-16T13:44:32.589Z,55.30
2017-09-16T13:47:00.291Z,55.10
2017-09-16T13:49:28.031Z,55.20
2017-09-16T13:51:55.652Z,55.10
2017-09-16T13:54:23.301Z,54.90
2017-09-16T13:56:50.943Z,55.00
2017-09-16T13:59:18.600Z,55.20
2017-09-16T14:01:46.364Z,55.00
2017-09-16T14:04:13.980Z,55.00
2017-09-16T14:06:41.638Z,55.20
2017-09-16T14:09:09.257Z,54.70
2017-09-16T14:11:36.913Z,54.70
2017-09-16T14:14:04.574Z,54.60
2017-09-16T14:16:32.190Z,54.60
2017-09-16T14:18:59.853Z,54.60
2017-09-16T14:21:27.538Z,54.10
2017-09-16T14:23:55.152Z,54.00
2017-09-16T14:26:22.816Z,54.20
2017-09-16T14:28:50.437Z,53.90
2017-09-16T14:31:18.834Z,54.60
2017-09-16T14:33:47.274Z,54.20
2017-09-16T14:36:14.936Z,54.20
2017-09-16T14:38:42.612Z,54.20
2017-09-16T14:41:10.235Z,54.10
2017-09-16T14:43:37.902Z,54.00
2017-09-16T14:46:05.611Z,54.50
2017-09-16T14:48:33.361Z,53.90
2017-09-16T14:51:01.015Z,53.90
2017-09-16T14:53:28.628Z,54.00
2017-09-16T14:55:57.042Z,54.00
2017-09-16T14:58:24.665Z,54.00
2017-09-16T15:00:53.052Z,53.80
2017-09-16T15:03:20.773Z,53.80
2017-09-16T15:05:49.167Z,53.90
2017-09-16T15:08:17.605Z,53.90
2017-09-16T15:10:45.295Z,53.80
2017-09-16T15:13:12.935Z,54.00
2017-09-16T15:15:40.591Z,54.00
2017-09-16T15:18:08.210Z,54.50
2017-09-16T15:20:36.659Z,54.60
2017-09-16T15:23:04.334Z,54.40
2017-09-16T15:25:31.959Z,54.50
2017-09-16T15:27:59.594Z,54.40
2017-09-16T15:30:27.263Z,54.70
2017-09-16T15:32:54.882Z,55.00
2017-09-16T15:35:22.515Z,55.00
2017-09-16T15:37:50.188Z,55.60
2017-09-16T15:40:17.804Z,55.00
2017-09-16T15:42:45.514Z,54.80
2017-09-16T15:45:13.177Z,55.00
2017-09-16T15:47:42.304Z,54.90
2017-09-16T15:50:10.718Z,55.40
2017-09-16T15:52:38.389Z,55.30
2017-09-16T15:55:06.017Z,55.40
2017-09-16T15:57:33.716Z,55.40
2017-09-16T16:00:01.343Z,55.40
2017-09-16T16:02:29.039Z,55.10
2017-09-16T16:04:56.686Z,55.50
2017-09-16T16:07:24.310Z,55.60
2017-09-16T16:09:52.764Z,55.70
2017-09-16T16:12:20.418Z,55.60
2017-09-16T16:14:48.064Z,55.50
2017-09-16T16:17:15.684Z,55.50
2017-09-16T16:19:44.066Z,55.40
2017-09-16T16:22:11.787Z,55.30
2017-09-16T16:24:40.173Z,55.60
2017-09-16T16:27:07.950Z,55.70
2017-09-16T16:29:36.388Z,56.80
2017-09-16T16:32:04.036Z,56.00
2017-09-16T16:34:31.675Z,56.00
2017-09-16T16:36:59.602Z,56.00
2017-09-16T16:39:27.448Z,56.10
2017-09-16T16:41:55.339Z,56.10
2017-09-16T16:44:23.200Z,56.20
2017-09-16T16:46:51.065Z,56.20
2017-09-16T16:49:18.932Z,56.30
2017-09-16T16:51:46.798Z,56.40
2017-09-16T16:54:14.664Z,56.40
2017-09-16T16:56:42.535Z,56.40
2017-09-16T16:59:10.394Z,56.40
2017-09-16T17:01:38.266Z,56.30
2017-09-16T17:04:06.050Z,56.40
2017-09-16T17:06:34.005Z,56.50
2017-09-16T17:09:01.860Z,56.50
2017-09-16T17:11:29.657Z,56.40
2017-09-16T17:13:58.286Z,56.60
2017-09-16T17:16:26.075Z,56.50
2017-09-16T17:18:53.948Z,56.60
2017-09-16T17:21:21.809Z,56.60
2017-09-16T17:23:49.681Z,56.70
2017-09-16T17:26:19.078Z,56.70
2017-09-16T17:28:46.863Z,56.60
2017-09-16T17:31:14.714Z,56.70
2017-09-16T17:33:44.084Z,56.90
2017-09-16T17:36:11.895Z,56.80
2017-09-16T17:38:39.847Z,57.00
2017-09-16T17:41:07.715Z,57.50
2017-09-16T17:43:35.583Z,56.90
2017-09-16T17:46:03.453Z,57.00
2017-09-16T17:48:31.312Z,57.10
2017-09-16T17:50:59.590Z,57.20
2017-09-16T17:53:27.458Z,57.10
2017-09-16T17:55:55.329Z,57.20
2017-09-16T17:58:23.199Z,57.30
2017-09-16T18:00:51.061Z,57.50
2017-09-16T18:03:20.461Z,57.50
2017-09-16T18:05:48.336Z,57.40
2017-09-16T18:08:16.158Z,57.60
2017-09-16T18:10:44.061Z,57.60
2017-09-16T18:13:11.932Z,57.80
2017-09-16T18:15:39.800Z,57.80
2017-09-16T18:18:08.483Z,58.60
2017-09-16T18:20:36.432Z,57.90
2017-09-16T18:23:04.173Z,58.00
2017-09-16T18:25:31.990Z,58.00
2017-09-16T18:27:59.838Z,58.00
2017-09-16T18:30:27.598Z,57.80
2017-09-16T18:32:55.347Z,57.90
2017-09-16T18:35:23.144Z,57.80
2017-09-16T18:37:50.886Z,57.90
2017-09-16T18:40:18.669Z,57.80
2017-09-16T18:42:46.419Z,57.70
2017-09-16T18:45:14.237Z,57.60
2017-09-16T18:47:42.320Z,57.60
2017-09-16T18:50:10.331Z,57.60
2017-09-16T18:52:38.072Z,57.70
2017-09-16T18:55:05.814Z,57.60
2017-09-16T18:57:33.640Z,57.50
2017-09-16T19:00:01.377Z,57.50
2017-09-16T19:02:29.188Z,57.50
2017-09-16T19:04:57.720Z,57.60
2017-09-16T19:07:25.551Z,57.50
2017-09-16T19:09:53.322Z,57.60
2017-09-16T19:12:21.100Z,57.60
2017-09-16T19:14:48.918Z,57.60
2017-09-16T19:17:17.467Z,58.10
2017-09-16T19:19:45.227Z,57.80
2017-09-16T19:22:13.028Z,57.80
2017-09-16T19:24:40.813Z,57.90
2017-09-16T19:27:09.347Z,58.00
2017-09-16T19:29:37.162Z,58.00
2017-09-16T19:32:04.974Z,58.00
2017-09-16T19:34:32.803Z,58.00
2017-09-16T19:37:00.567Z,58.10
2017-09-16T19:39:28.402Z,58.10
2017-09-16T19:41:56.962Z,58.20
2017-09-16T19:44:24.778Z,58.20
2017-09-16T19:46:52.610Z,58.20
2017-09-16T19:49:20.232Z,58.30
2017-09-16T19:51:47.918Z,58.60
2017-09-16T19:54:15.601Z,58.70
2017-09-16T19:56:43.256Z,59.20
2017-09-16T19:59:10.931Z,58.60
2017-09-16T20:01:38.572Z,58.80
2017-09-16T20:04:06.301Z,58.90
2017-09-16T20:06:33.977Z,59.00
2017-09-16T20:09:01.645Z,59.10
2017-09-16T20:11:29.320Z,59.10
2017-09-16T20:13:56.966Z,59.20
2017-09-16T20:16:24.684Z,59.20
2017-09-16T20:18:52.338Z,59.20
2017-09-16T20:21:19.984Z,59.20
2017-09-16T20:23:47.671Z,59.50
2017-09-16T20:26:16.818Z,59.40
2017-09-16T20:28:44.710Z,59.40
2017-09-16T20:31:13.327Z,59.10
2017-09-16T20:33:40.989Z,59.60
2017-09-16T20:36:08.654Z,59.40
2017-09-16T20:38:36.341Z,59.40
2017-09-16T20:41:03.993Z,59.60
2017-09-16T20:43:31.679Z,59.40
2017-09-16T20:45:59.380Z,59.50
2017-09-16T20:48:27.043Z,59.50
2017-09-16T20:50:54.718Z,59.20
2017-09-16T20:53:22.423Z,59.50
2017-09-16T20:55:50.060Z,59.60
2017-09-16T20:58:17.770Z,59.50
2017-09-16T21:00:45.439Z,59.50
2017-09-16T21:03:13.081Z,59.60
2017-09-16T21:05:40.754Z,59.50
2017-09-16T21:08:08.456Z,59.60
2017-09-16T21:10:36.144Z,59.80
2017-09-16T21:13:03.785Z,59.70
2017-09-16T21:15:31.416Z,59.80
2017-09-16T21:17:59.488Z,59.70
2017-09-16T21:20:27.203Z,59.80
2017-09-16T21:22:55.213Z,59.80
2017-09-16T21:25:22.953Z,59.70
2017-09-16T21:27:50.786Z,59.80
2017-09-16T21:30:18.467Z,59.90
2017-09-16T21:32:46.097Z,59.90
2017-09-16T21:35:14.517Z,59.80
2017-09-16T21:37:42.215Z,60.50
2017-09-16T21:40:10.638Z,60.00
2017-09-16T21:42:38.342Z,60.00
2017-09-16T21:45:05.990Z,59.90
2017-09-16T21:47:33.758Z,60.00
2017-09-16T21:50:01.536Z,59.90
2017-09-16T21:52:29.375Z,59.90
2017-09-16T21:54:57.142Z,60.00
2017-09-16T21:57:24.887Z,60.00
2017-09-16T21:59:52.681Z,60.00
2017-09-16T22:02:20.451Z,59.90
2017-09-16T22:04:48.278Z,59.80
2017-09-16T22:07:16.034Z,60.00
2017-09-16T22:09:43.671Z,59.90
2017-09-16T22:12:12.083Z,60.10
2017-09-16T22:14:39.710Z,60.00
2017-09-16T22:17:08.145Z,60.00
2017-09-16T22:19:35.784Z,60.00
2017-09-16T22:22:03.441Z,60.10
2017-09-16T22:24:31.078Z,60.00
2017-09-16T22:26:59.489Z,60.40
2017-09-16T22:29:27.122Z,60.30
2017-09-16T22:31:55.528Z,60.10
2017-09-16T22:34:23.192Z,60.00
2017-09-16T22:36:50.845Z,60.20
2017-09-16T22:39:18.481Z,60.20
2017-09-16T22:41:46.867Z,60.20
2017-09-16T22:44:14.522Z,60.20
2017-09-16T22:46:42.930Z,60.30
2017-09-16T22:49:10.548Z,60.10
2017-09-16T22:51:38.449Z,60.30
2017-09-16T22:54:06.110Z,60.30
2017-09-16T22:56:33.820Z,60.30
2017-09-16T22:59:01.441Z,60.50
2017-09-16T23:01:29.100Z,60.40
2017-09-16T23:03:56.730Z,60.00
2017-09-16T23:06:24.398Z,60.20
2017-09-16T23:08:52.855Z,60.30
2017-09-16T23:11:20.602Z,60.10
2017-09-16T23:13:48.237Z,60.20
2017-09-16T23:16:15.886Z,60.30
2017-09-16T23:18:43.554Z,60.00
2017-09-16T23:21:11.186Z,60.30
2017-09-16T23:23:39.623Z,60.00
2017-09-16T23:26:07.394Z,60.00
2017-09-16T23:28:35.023Z,60.00
2017-09-16T23:31:02.665Z,60.10
2017-09-16T23:33:31.068Z,60.00
2017-09-16T23:35:58.723Z,59.90
2017-09-16T23:38:26.363Z,59.90
2017-09-16T23:40:54.777Z,60.00
2017-09-16T23:43:22.396Z,59.90
2017-09-16T23:45:50.814Z,60.80
2017-09-16T23:48:18.425Z,59.90
2017-09-16T23:50:46.041Z,59.90
2017-09-16T23:53:13.710Z,60.00
2017-09-16T23:55:41.333Z,60.10
2017-09-16T23:58:09.867Z,60.20
